sensor_id;sensor_type;location;lat;lon;timestamp;P1;durP1;ratioP1;P2;durP2;ratioP2
3767;SDS011;1899;49.966;7.106;2023-02-03T05:00:24;4.07;;;3.17;;
3767;SDS011;1899;49.966;7.106;2023-02-03T05:02:50;3.70;;;3.40;;
3767;SDS011;1899;49.966;7.106;2023-02-03T05:05:15;3.67;;;3.37;;
3767;SDS011;1899;49.966;7.106;2023-02-03T05:07:40;4.00;;;3.40;;
3767;SDS011;1899;49.966;7.106;2023-02-03T05:10:06;4.97;;;3.33;;
3767;SDS011;1899;49.966;7.106;2023-02-03T05:12:31;3.27;;;2.97;;
3767;SDS011;1899;49.966;7.106;2023-02-03T05:14:56;4.22;;;3.35;;
3767;SDS011;1899;49.966;7.106;2023-02-03T05:17:21;4.90;;;3.33;;
3767;SDS011;1899;49.966;7.106;2023-02-03T05:19:47;4.00;;;3.20;;
3767;SDS011;1899;49.966;7.106;2023-02-03T05:22:12;4.87;;;3.23;;
3767;SDS011;1899;49.966;7.106;2023-02-03T05:24:37;3.30;;;2.70;;
3767;SDS011;1899;49.966;7.106;2023-02-03T05:27:02;3.97;;;2.50;;
3767;SDS011;1899;49.966;7.106;2023-02-03T05:29:28;3.83;;;3.10;;
3767;SDS011;1899;49.966;7.106;2023-02-03T05:31:53;3.07;;;2.70;;
3767;SDS011;1899;49.966;7.106;2023-02-03T05:34:18;4.30;;;3.10;;
3767;SDS011;1899;49.966;7.106;2023-02-03T05:36:43;3.20;;;2.57;;
3767;SDS011;1899;49.966;7.106;2023-02-03T05:39:09;3.80;;;2.57;;
3767;SDS011;1899;49.966;7.106;2023-02-03T05:41:34;3.25;;;2.50;;
3767;SDS011;1899;49.966;7.106;2023-02-03T05:44:21;4.60;;;2.50;;
3767;SDS011;1899;49.966;7.106;2023-02-03T05:46:47;3.40;;;2.50;;
3767;SDS011;1899;49.966;7.106;2023-02-03T05:49:12;2.72;;;2.50;;
3767;SDS011;1899;49.966;7.106;2023-02-03T05:51:38;2.83;;;2.53;;
3767;SDS011;1899;49.966;7.106;2023-02-03T05:54:03;3.60;;;2.10;;
3767;SDS011;1899;49.966;7.106;2023-02-03T05:56:29;3.60;;;2.30;;
3767;SDS011;1899;49.966;7.106;2023-02-03T05:58:54;3.30;;;2.50;;
3767;SDS011;1899;49.966;7.106;2023-02-03T06:01:19;4.27;;;2.80;;
3767;SDS011;1899;49.966;7.106;2023-02-03T06:03:45;4.40;;;2.83;;
3767;SDS011;1899;49.966;7.106;2023-02-03T06:06:10;2.97;;;2.20;;
3767;SDS011;1899;49.966;7.106;2023-02-03T06:08:36;3.03;;;2.53;;
3767;SDS011;1899;49.966;7.106;2023-02-03T06:11:01;3.53;;;2.40;;
3767;SDS011;1899;49.966;7.106;2023-02-03T06:13:26;3.08;;;2.60;;
3767;SDS011;1899;49.966;7.106;2023-02-03T06:15:52;2.70;;;2.40;;
3767;SDS011;1899;49.966;7.106;2023-02-03T06:18:17;3.17;;;2.27;;
3767;SDS011;1899;49.966;7.106;2023-02-03T06:20:42;4.60;;;2.70;;
3767;SDS011;1899;49.966;7.106;2023-02-03T06:23:08;3.93;;;2.90;;
3767;SDS011;1899;49.966;7.106;2023-02-03T06:25:33;4.50;;;2.50;;
3767;SDS011;1899;49.966;7.106;2023-02-03T06:27:58;5.90;;;2.70;;
3767;SDS011;1899;49.966;7.106;2023-02-03T06:30:24;3.40;;;2.53;;
3767;SDS011;1899;49.966;7.106;2023-02-03T06:32:49;3.60;;;2.90;;
3767;SDS011;1899;49.966;7.106;2023-02-03T06:35:15;3.60;;;2.63;;
3767;SDS011;1899;49.966;7.106;2023-02-03T06:37:40;2.90;;;2.67;;
3767;SDS011;1899;49.966;7.106;2023-02-03T06:40:06;3.20;;;2.50;;
3767;SDS011;1899;49.966;7.106;2023-02-03T06:42:31;4.13;;;2.80;;
3767;SDS011;1899;49.966;7.106;2023-02-03T06:44:56;2.93;;;2.73;;
3767;SDS011;1899;49.966;7.106;2023-02-03T06:47:22;3.23;;;2.40;;
3767;SDS011;1899;49.966;7.106;2023-02-03T06:49:47;2.83;;;2.30;;
3767;SDS011;1899;49.966;7.106;2023-02-03T06:52:12;6.00;;;2.67;;
3767;SDS011;1899;49.966;7.106;2023-02-03T06:54:39;4.53;;;2.58;;
3767;SDS011;1899;49.966;7.106;2023-02-03T06:57:04;3.47;;;2.60;;
3767;SDS011;1899;49.966;7.106;2023-02-03T06:59:30;3.67;;;2.22;;
3767;SDS011;1899;49.966;7.106;2023-02-03T07:01:55;3.40;;;2.40;;
3767;SDS011;1899;49.966;7.106;2023-02-03T07:04:21;2.83;;;2.30;;
3767;SDS011;1899;49.966;7.106;2023-02-03T07:06:46;2.20;;;1.97;;
3767;SDS011;1899;49.966;7.106;2023-02-03T07:09:11;2.07;;;1.87;;
3767;SDS011;1899;49.966;7.106;2023-02-03T07:11:37;3.40;;;2.10;;
3767;SDS011;1899;49.966;7.106;2023-02-03T07:14:02;2.80;;;2.00;;
3767;SDS011;1899;49.966;7.106;2023-02-03T07:16:28;2.40;;;1.77;;
3767;SDS011;1899;49.966;7.106;2023-02-03T07:18:53;4.20;;;1.90;;
3767;SDS011;1899;49.966;7.106;2023-02-03T07:21:18;3.27;;;2.10;;
3767;SDS011;1899;49.966;7.106;2023-02-03T07:23:47;2.60;;;1.50;;
3767;SDS011;1899;49.966;7.106;2023-02-03T07:26:13;3.50;;;1.93;;
3767;SDS011;1899;49.966;7.106;2023-02-03T07:28:38;3.40;;;1.87;;
3767;SDS011;1899;49.966;7.106;2023-02-03T07:31:05;1.88;;;1.50;;
3767;SDS011;1899;49.966;7.106;2023-02-03T07:33:34;2.47;;;1.57;;
3767;SDS011;1899;49.966;7.106;2023-02-03T07:35:59;2.90;;;2.00;;
3767;SDS011;1899;49.966;7.106;2023-02-03T07:38:25;2.60;;;1.80;;
3767;SDS011;1899;49.966;7.106;2023-02-03T07:40:51;4.10;;;1.70;;
3767;SDS011;1899;49.966;7.106;2023-02-03T07:43:17;2.05;;;1.70;;
3767;SDS011;1899;49.966;7.106;2023-02-03T07:45:42;3.70;;;1.70;;
3767;SDS011;1899;49.966;7.106;2023-02-03T07:48:07;2.40;;;1.50;;
3767;SDS011;1899;49.966;7.106;2023-02-03T07:50:33;2.80;;;1.80;;
3767;SDS011;1899;49.966;7.106;2023-02-03T07:52:58;2.70;;;1.80;;
3767;SDS011;1899;49.966;7.106;2023-02-03T07:55:24;4.03;;;2.00;;
3767;SDS011;1899;49.966;7.106;2023-02-03T07:57:49;3.72;;;1.85;;
3767;SDS011;1899;49.966;7.106;2023-02-03T08:00:15;1.67;;;1.40;;
3767;SDS011;1899;49.966;7.106;2023-02-03T08:02:41;3.30;;;1.70;;
3767;SDS011;1899;49.966;7.106;2023-02-03T08:05:06;1.95;;;1.70;;
3767;SDS011;1899;49.966;7.106;2023-02-03T08:07:32;1.90;;;1.55;;
3767;SDS011;1899;49.966;7.106;2023-02-03T08:09:57;4.10;;;1.90;;
3767;SDS011;1899;49.966;7.106;2023-02-03T08:12:22;4.97;;;1.90;;
3767;SDS011;1899;49.966;7.106;2023-02-03T08:14:48;1.50;;;1.40;;
3767;SDS011;1899;49.966;7.106;2023-02-03T08:17:13;5.43;;;1.60;;
3767;SDS011;1899;49.966;7.106;2023-02-03T08:19:38;2.53;;;1.67;;
3767;SDS011;1899;49.966;7.106;2023-02-03T08:22:03;3.27;;;1.60;;
3767;SDS011;1899;49.966;7.106;2023-02-03T08:24:28;1.63;;;1.30;;
3767;SDS011;1899;49.966;7.106;2023-02-03T08:26:54;1.83;;;1.50;;
3767;SDS011;1899;49.966;7.106;2023-02-03T08:29:19;3.30;;;1.60;;
3767;SDS011;1899;49.966;7.106;2023-02-03T08:31:44;3.00;;;1.50;;
3767;SDS011;1899;49.966;7.106;2023-02-03T08:34:10;2.97;;;1.50;;
3767;SDS011;1899;49.966;7.106;2023-02-03T08:36:35;2.50;;;1.30;;
3767;SDS011;1899;49.966;7.106;2023-02-03T08:39:03;3.30;;;1.42;;
3767;SDS011;1899;49.966;7.106;2023-02-03T08:41:29;2.33;;;1.23;;
3767;SDS011;1899;49.966;7.106;2023-02-03T08:43:54;2.70;;;1.30;;
3767;SDS011;1899;49.966;7.106;2023-02-03T08:46:19;2.10;;;1.50;;
3767;SDS011;1899;49.966;7.106;2023-02-03T08:48:45;2.30;;;1.60;;
3767;SDS011;1899;49.966;7.106;2023-02-03T08:51:11;2.00;;;1.20;;
3767;SDS011;1899;49.966;7.106;2023-02-03T08:53:37;2.50;;;1.20;;
3767;SDS011;1899;49.966;7.106;2023-02-03T08:56:06;1.53;;;1.10;;
3767;SDS011;1899;49.966;7.106;2023-02-03T08:58:32;2.40;;;1.30;;
3767;SDS011;1899;49.966;7.106;2023-02-03T09:01:10;1.30;;;1.05;;
3767;SDS011;1899;49.966;7.106;2023-02-03T09:03:36;5.35;;;1.70;;
3767;SDS011;1899;49.966;7.106;2023-02-03T09:06:02;2.03;;;1.10;;
3767;SDS011;1899;49.966;7.106;2023-02-03T09:08:27;2.30;;;1.40;;
3767;SDS011;1899;49.966;7.106;2023-02-03T09:10:53;2.10;;;1.30;;
3767;SDS011;1899;49.966;7.106;2023-02-03T09:13:18;2.30;;;1.70;;
3767;SDS011;1899;49.966;7.106;2023-02-03T09:15:43;1.90;;;1.40;;
3767;SDS011;1899;49.966;7.106;2023-02-03T09:18:08;2.47;;;1.30;;
3767;SDS011;1899;49.966;7.106;2023-02-03T09:20:34;3.23;;;1.20;;
3767;SDS011;1899;49.966;7.106;2023-02-03T09:22:59;1.47;;;1.10;;
3767;SDS011;1899;49.966;7.106;2023-02-03T09:25:24;2.90;;;1.40;;
3767;SDS011;1899;49.966;7.106;2023-02-03T09:27:50;2.40;;;1.60;;
3767;SDS011;1899;49.966;7.106;2023-02-03T09:30:15;2.37;;;1.20;;
3767;SDS011;1899;49.966;7.106;2023-02-03T09:32:40;1.90;;;1.30;;
3767;SDS011;1899;49.966;7.106;2023-02-03T09:35:06;2.57;;;1.30;;
3767;SDS011;1899;49.966;7.106;2023-02-03T09:37:31;1.80;;;1.20;;
3767;SDS011;1899;49.966;7.106;2023-02-03T09:39:56;2.40;;;1.33;;
3767;SDS011;1899;49.966;7.106;2023-02-03T09:47:34;2.53;;;1.30;;
3767;SDS011;1899;49.966;7.106;2023-02-03T09:50:01;2.88;;;1.17;;
3767;SDS011;1899;49.966;7.106;2023-02-03T09:52:32;1.30;;;1.00;;
3767;SDS011;1899;49.966;7.106;2023-02-03T09:57:27;2.67;;;1.10;;
3767;SDS011;1899;49.966;7.106;2023-02-03T09:59:53;3.83;;;1.20;;
3767;SDS011;1899;49.966;7.106;2023-02-03T10:05:02;1.33;;;1.00;;
3767;SDS011;1899;49.966;7.106;2023-02-03T10:07:45;3.20;;;1.10;;
3767;SDS011;1899;49.966;7.106;2023-02-03T10:10:16;4.22;;;1.15;;
3767;SDS011;1899;49.966;7.106;2023-02-03T10:22:29;2.50;;;1.17;;
3767;SDS011;1899;49.966;7.106;2023-02-03T10:27:23;2.47;;;1.10;;
3767;SDS011;1899;49.966;7.106;2023-02-03T10:29:53;1.20;;;1.00;;
3767;SDS011;1899;49.966;7.106;2023-02-03T10:32:22;2.10;;;1.20;;
3767;SDS011;1899;49.966;7.106;2023-02-03T10:34:48;2.22;;;1.38;;
3767;SDS011;1899;49.966;7.106;2023-02-03T10:37:22;1.80;;;1.10;;
3767;SDS011;1899;49.966;7.106;2023-02-03T10:39:48;1.23;;;0.90;;
3767;SDS011;1899;49.966;7.106;2023-02-03T10:42:14;3.30;;;1.20;;
3767;SDS011;1899;49.966;7.106;2023-02-03T10:49:39;2.83;;;1.30;;
3767;SDS011;1899;49.966;7.106;2023-02-03T10:52:07;2.08;;;1.15;;
3767;SDS011;1899;49.966;7.106;2023-02-03T10:54:47;2.80;;;1.00;;
3767;SDS011;1899;49.966;7.106;2023-02-03T10:57:13;2.70;;;1.00;;
3767;SDS011;1899;49.966;7.106;2023-02-03T10:59:45;1.83;;;1.10;;
3767;SDS011;1899;49.966;7.106;2023-02-03T11:04:44;2.58;;;1.10;;
3767;SDS011;1899;49.966;7.106;2023-02-03T11:07:10;3.30;;;1.25;;
3767;SDS011;1899;49.966;7.106;2023-02-03T11:09:47;1.90;;;1.00;;
3767;SDS011;1899;49.966;7.106;2023-02-03T11:12:13;2.70;;;1.20;;
3767;SDS011;1899;49.966;7.106;2023-02-03T11:14:40;1.40;;;1.00;;
3767;SDS011;1899;49.966;7.106;2023-02-03T11:17:08;1.83;;;1.20;;
3767;SDS011;1899;49.966;7.106;2023-02-03T11:19:38;2.13;;;1.43;;
3767;SDS011;1899;49.966;7.106;2023-02-03T11:22:03;2.60;;;1.00;;
3767;SDS011;1899;49.966;7.106;2023-02-03T11:24:30;1.60;;;1.10;;
3767;SDS011;1899;49.966;7.106;2023-02-03T11:29:28;2.20;;;1.10;;
3767;SDS011;1899;49.966;7.106;2023-02-03T11:31:55;2.40;;;1.07;;
3767;SDS011;1899;49.966;7.106;2023-02-03T11:34:22;2.40;;;1.20;;
3767;SDS011;1899;49.966;7.106;2023-02-03T11:36:49;1.73;;;1.10;;
3767;SDS011;1899;49.966;7.106;2023-02-03T11:39:19;1.40;;;1.00;;
3767;SDS011;1899;49.966;7.106;2023-02-03T11:41:46;2.72;;;1.20;;
3767;SDS011;1899;49.966;7.106;2023-02-03T11:44:15;3.08;;;1.20;;
3767;SDS011;1899;49.966;7.106;2023-02-03T11:46:41;2.50;;;1.02;;
3767;SDS011;1899;49.966;7.106;2023-02-03T11:54:54;1.90;;;1.00;;
3767;SDS011;1899;49.966;7.106;2023-02-03T11:57:29;3.00;;;1.10;;
3767;SDS011;1899;49.966;7.106;2023-02-03T12:00:03;1.95;;;1.00;;
3767;SDS011;1899;49.966;7.106;2023-02-03T12:28:49;2.20;;;1.10;;
3767;SDS011;1899;49.966;7.106;2023-02-03T12:31:22;2.45;;;1.00;;
3767;SDS011;1899;49.966;7.106;2023-02-03T12:33:55;1.60;;;0.80;;
3767;SDS011;1899;49.966;7.106;2023-02-03T12:36:27;2.80;;;1.00;;
3767;SDS011;1899;49.966;7.106;2023-02-03T12:38:58;2.40;;;0.90;;
3767;SDS011;1899;49.966;7.106;2023-02-03T12:41:37;1.80;;;0.80;;
3767;SDS011;1899;49.966;7.106;2023-02-03T12:44:04;2.20;;;0.80;;
3767;SDS011;1899;49.966;7.106;2023-02-03T12:46:36;1.50;;;0.70;;
3767;SDS011;1899;49.966;7.106;2023-02-03T12:49:09;1.90;;;0.80;;
3767;SDS011;1899;49.966;7.106;2023-02-03T12:51:42;2.70;;;0.90;;
3767;SDS011;1899;49.966;7.106;2023-02-03T12:54:14;1.50;;;0.80;;
3767;SDS011;1899;49.966;7.106;2023-02-03T12:56:41;1.10;;;0.80;;
3767;SDS011;1899;49.966;7.106;2023-02-03T12:59:23;2.10;;;0.90;;
3767;SDS011;1899;49.966;7.106;2023-02-03T13:01:55;1.70;;;0.80;;
3767;SDS011;1899;49.966;7.106;2023-02-03T13:04:42;1.50;;;0.70;;
3767;SDS011;1899;49.966;7.106;2023-02-03T13:09:43;1.50;;;0.80;;
3767;SDS011;1899;49.966;7.106;2023-02-03T13:12:26;2.30;;;1.00;;
3767;SDS011;1899;49.966;7.106;2023-02-03T13:17:27;1.30;;;0.70;;
3767;SDS011;1899;49.966;7.106;2023-02-03T13:19:57;2.17;;;0.70;;
3767;SDS011;1899;49.966;7.106;2023-02-03T13:22:23;1.30;;;0.80;;
3767;SDS011;1899;49.966;7.106;2023-02-03T13:24:56;1.03;;;0.77;;
3767;SDS011;1899;49.966;7.106;2023-02-03T13:27:29;0.90;;;0.75;;
3767;SDS011;1899;49.966;7.106;2023-02-03T13:30:02;0.90;;;0.70;;
3767;SDS011;1899;49.966;7.106;2023-02-03T13:40:27;2.00;;;0.70;;
3767;SDS011;1899;49.966;7.106;2023-02-03T13:43:00;3.10;;;0.80;;
3767;SDS011;1899;49.966;7.106;2023-02-03T13:45:27;0.80;;;0.60;;
3767;SDS011;1899;49.966;7.106;2023-02-03T13:47:56;1.02;;;0.80;;
3767;SDS011;1899;49.966;7.106;2023-02-03T13:50:28;1.10;;;0.80;;
3767;SDS011;1899;49.966;7.106;2023-02-03T13:52:58;1.50;;;0.90;;
3767;SDS011;1899;49.966;7.106;2023-02-03T13:57:49;0.80;;;0.70;;
3767;SDS011;1899;49.966;7.106;2023-02-03T14:02:59;2.10;;;0.70;;
3767;SDS011;1899;49.966;7.106;2023-02-03T14:05:38;2.17;;;1.00;;
3767;SDS011;1899;49.966;7.106;2023-02-03T14:10:47;1.30;;;0.80;;
3767;SDS011;1899;49.966;7.106;2023-02-03T14:13:32;1.40;;;0.70;;
3767;SDS011;1899;49.966;7.106;2023-02-03T14:16:44;0.70;;;0.60;;
3767;SDS011;1899;49.966;7.106;2023-02-03T14:18:44;1.50;;;0.70;;
3767;SDS011;1899;49.966;7.106;2023-02-03T14:21:13;0.90;;;0.80;;
3767;SDS011;1899;49.966;7.106;2023-02-03T14:23:42;1.30;;;0.80;;
3767;SDS011;1899;49.966;7.106;2023-02-03T14:26:13;1.10;;;0.70;;
3767;SDS011;1899;49.966;7.106;2023-02-03T14:28:41;0.80;;;0.70;;
3767;SDS011;1899;49.966;7.106;2023-02-03T14:36:40;1.00;;;0.80;;
3767;SDS011;1899;49.966;7.106;2023-02-03T14:49:42;1.33;;;0.95;;
3767;SDS011;1899;49.966;7.106;2023-02-03T14:57:28;1.50;;;0.90;;
3767;SDS011;1899;49.966;7.106;2023-02-03T14:59:57;2.10;;;0.90;;
3767;SDS011;1899;49.966;7.106;2023-02-03T15:02:25;1.00;;;0.70;;
3767;SDS011;1899;49.966;7.106;2023-02-03T15:05:32;1.00;;;0.80;;
3767;SDS011;1899;49.966;7.106;2023-02-03T15:10:03;1.50;;;0.83;;
3767;SDS011;1899;49.966;7.106;2023-02-03T15:12:35;0.80;;;0.70;;
3767;SDS011;1899;49.966;7.106;2023-02-03T15:15:11;1.20;;;0.95;;
3767;SDS011;1899;49.966;7.106;2023-02-03T15:17:37;1.20;;;0.80;;
3767;SDS011;1899;49.966;7.106;2023-02-03T15:20:14;1.20;;;1.00;;
3767;SDS011;1899;49.966;7.106;2023-02-03T15:22:39;1.40;;;0.80;;
3767;SDS011;1899;49.966;7.106;2023-02-03T15:25:09;2.70;;;1.00;;
3767;SDS011;1899;49.966;7.106;2023-02-03T15:27:37;2.00;;;1.00;;
3767;SDS011;1899;49.966;7.106;2023-02-03T15:32:47;1.70;;;0.80;;
3767;SDS011;1899;49.966;7.106;2023-02-03T15:35:17;1.50;;;1.00;;
3767;SDS011;1899;49.966;7.106;2023-02-03T15:37:45;1.10;;;0.90;;
3767;SDS011;1899;49.966;7.106;2023-02-03T15:40:13;0.93;;;0.80;;
3767;SDS011;1899;49.966;7.106;2023-02-03T15:42:41;1.50;;;0.90;;
3767;SDS011;1899;49.966;7.106;2023-02-03T15:45:23;1.10;;;1.00;;
3767;SDS011;1899;49.966;7.106;2023-02-03T15:47:59;2.20;;;1.02;;
3767;SDS011;1899;49.966;7.106;2023-02-03T15:50:27;1.42;;;1.15;;
3767;SDS011;1899;49.966;7.106;2023-02-03T15:52:54;2.15;;;1.20;;
3767;SDS011;1899;49.966;7.106;2023-02-03T15:55:38;1.70;;;1.30;;
3767;SDS011;1899;49.966;7.106;2023-02-03T15:58:04;2.00;;;1.40;;
3767;SDS011;1899;49.966;7.106;2023-02-03T16:00:34;1.77;;;1.30;;
3767;SDS011;1899;49.966;7.106;2023-02-03T16:03:02;1.70;;;1.40;;
3767;SDS011;1899;49.966;7.106;2023-02-03T16:05:30;1.90;;;1.20;;
3767;SDS011;1899;49.966;7.106;2023-02-03T16:07:56;1.90;;;1.55;;
3767;SDS011;1899;49.966;7.106;2023-02-03T16:10:25;1.50;;;1.40;;
3767;SDS011;1899;49.966;7.106;2023-02-03T16:12:52;1.30;;;1.20;;
3767;SDS011;1899;49.966;7.106;2023-02-03T16:15:22;1.40;;;1.30;;
3767;SDS011;1899;49.966;7.106;2023-02-03T16:17:52;1.50;;;1.40;;
3767;SDS011;1899;49.966;7.106;2023-02-03T16:22:44;1.80;;;1.60;;
3767;SDS011;1899;49.966;7.106;2023-02-03T16:25:13;2.10;;;1.90;;
3767;SDS011;1899;49.966;7.106;2023-02-03T16:27:38;2.40;;;1.60;;
3767;SDS011;1899;49.966;7.106;2023-02-03T16:35:51;1.83;;;1.73;;
3767;SDS011;1899;49.966;7.106;2023-02-03T16:38:34;1.70;;;1.60;;
3767;SDS011;1899;49.966;7.106;2023-02-03T16:41:18;2.50;;;1.70;;
3767;SDS011;1899;49.966;7.106;2023-02-03T16:44:02;2.30;;;1.60;;
3767;SDS011;1899;49.966;7.106;2023-02-03T16:46:45;2.20;;;1.60;;
3767;SDS011;1899;49.966;7.106;2023-02-03T16:49:30;2.40;;;1.60;;
3767;SDS011;1899;49.966;7.106;2023-02-03T16:52:13;2.50;;;1.90;;
3767;SDS011;1899;49.966;7.106;2023-02-03T16:54:38;1.90;;;1.80;;
3767;SDS011;1899;49.966;7.106;2023-02-03T16:57:04;2.20;;;2.00;;
3767;SDS011;1899;49.966;7.106;2023-02-03T16:59:29;1.83;;;1.73;;
3767;SDS011;1899;49.966;7.106;2023-02-03T17:01:54;2.40;;;1.80;;
3767;SDS011;1899;49.966;7.106;2023-02-03T17:04:19;2.50;;;2.30;;
3767;SDS011;1899;49.966;7.106;2023-02-03T17:06:45;2.07;;;1.90;;
3767;SDS011;1899;49.966;7.106;2023-02-03T17:09:15;2.80;;;2.07;;
3767;SDS011;1899;49.966;7.106;2023-02-03T17:11:40;1.80;;;1.70;;
3767;SDS011;1899;49.966;7.106;2023-02-03T17:14:05;2.30;;;2.10;;
3767;SDS011;1899;49.966;7.106;2023-02-03T17:16:30;2.03;;;1.80;;
3767;SDS011;1899;49.966;7.106;2023-02-03T17:18:57;2.30;;;2.10;;
3767;SDS011;1899;49.966;7.106;2023-02-03T17:21:23;2.33;;;2.13;;
3767;SDS011;1899;49.966;7.106;2023-02-03T17:23:49;2.45;;;2.22;;
3767;SDS011;1899;49.966;7.106;2023-02-03T17:26:14;2.30;;;2.10;;
3767;SDS011;1899;49.966;7.106;2023-02-03T17:28:40;2.80;;;2.40;;
3767;SDS011;1899;49.966;7.106;2023-02-03T17:31:07;2.60;;;2.40;;
3767;SDS011;1899;49.966;7.106;2023-02-03T17:33:33;2.90;;;2.40;;
3767;SDS011;1899;49.966;7.106;2023-02-03T17:36:17;2.50;;;2.30;;
3767;SDS011;1899;49.966;7.106;2023-02-03T17:38:50;2.50;;;2.30;;
3767;SDS011;1899;49.966;7.106;2023-02-03T17:41:18;2.65;;;2.10;;
3767;SDS011;1899;49.966;7.106;2023-02-03T17:43:43;3.50;;;2.40;;
3767;SDS011;1899;49.966;7.106;2023-02-03T17:46:09;2.80;;;2.20;;
3767;SDS011;1899;49.966;7.106;2023-02-03T17:48:35;3.20;;;2.60;;
3767;SDS011;1899;49.966;7.106;2023-02-03T17:51:07;4.60;;;3.20;;
3767;SDS011;1899;49.966;7.106;2023-02-03T17:53:33;5.80;;;3.10;;
3767;SDS011;1899;49.966;7.106;2023-02-03T17:56:04;3.00;;;2.70;;
3767;SDS011;1899;49.966;7.106;2023-02-03T17:58:30;3.83;;;2.90;;
3767;SDS011;1899;49.966;7.106;2023-02-03T18:00:55;3.00;;;2.70;;
3767;SDS011;1899;49.966;7.106;2023-02-03T18:03:20;3.40;;;2.97;;
3767;SDS011;1899;49.966;7.106;2023-02-03T18:05:51;3.10;;;2.80;;
3767;SDS011;1899;49.966;7.106;2023-02-03T18:08:17;4.22;;;3.10;;
3767;SDS011;1899;49.966;7.106;2023-02-03T18:10:42;3.80;;;2.88;;
3767;SDS011;1899;49.966;7.106;2023-02-03T18:13:07;3.30;;;3.00;;
3767;SDS011;1899;49.966;7.106;2023-02-03T18:15:33;3.30;;;3.00;;
3767;SDS011;1899;49.966;7.106;2023-02-03T18:17:58;2.60;;;2.37;;
3767;SDS011;1899;49.966;7.106;2023-02-03T18:20:23;3.77;;;2.83;;
3767;SDS011;1899;49.966;7.106;2023-02-03T18:22:48;4.40;;;3.23;;
3767;SDS011;1899;49.966;7.106;2023-02-03T18:25:14;3.20;;;2.90;;
3767;SDS011;1899;49.966;7.106;2023-02-03T18:27:41;3.90;;;3.50;;
3767;SDS011;1899;49.966;7.106;2023-02-03T18:30:07;3.30;;;3.00;;
3767;SDS011;1899;49.966;7.106;2023-02-03T18:32:35;3.80;;;2.90;;
3767;SDS011;1899;49.966;7.106;2023-02-03T18:35:00;3.87;;;3.57;;
3767;SDS011;1899;49.966;7.106;2023-02-03T18:37:26;3.65;;;3.35;;
3767;SDS011;1899;49.966;7.106;2023-02-03T18:39:51;3.90;;;3.37;;
3767;SDS011;1899;49.966;7.106;2023-02-03T18:42:16;4.30;;;3.10;;
3767;SDS011;1899;49.966;7.106;2023-02-03T18:44:41;4.00;;;3.10;;
3767;SDS011;1899;49.966;7.106;2023-02-03T18:47:08;5.40;;;3.80;;
3767;SDS011;1899;49.966;7.106;2023-02-03T18:49:34;4.63;;;3.67;;
3767;SDS011;1899;49.966;7.106;2023-02-03T18:51:59;4.00;;;3.40;;
3767;SDS011;1899;49.966;7.106;2023-02-03T18:54:24;4.77;;;4.27;;
3767;SDS011;1899;49.966;7.106;2023-02-03T18:56:49;5.00;;;3.90;;
3767;SDS011;1899;49.966;7.106;2023-02-03T18:59:15;5.70;;;4.10;;
3767;SDS011;1899;49.966;7.106;2023-02-03T19:01:40;5.20;;;4.20;;
3767;SDS011;1899;49.966;7.106;2023-02-03T19:04:07;6.40;;;4.10;;
3767;SDS011;1899;49.966;7.106;2023-02-03T19:06:32;6.37;;;4.10;;
3767;SDS011;1899;49.966;7.106;2023-02-03T19:08:58;5.13;;;4.50;;
3767;SDS011;1899;49.966;7.106;2023-02-03T19:11:23;4.43;;;4.03;;
3767;SDS011;1899;49.966;7.106;2023-02-03T19:13:49;5.20;;;4.40;;
3767;SDS011;1899;49.966;7.106;2023-02-03T19:16:15;5.50;;;4.60;;
3767;SDS011;1899;49.966;7.106;2023-02-03T19:18:41;5.30;;;4.20;;
3767;SDS011;1899;49.966;7.106;2023-02-03T19:21:07;6.30;;;5.20;;
3767;SDS011;1899;49.966;7.106;2023-02-03T19:23:32;6.60;;;4.57;;
3767;SDS011;1899;49.966;7.106;2023-02-03T19:25:57;4.83;;;4.07;;
3767;SDS011;1899;49.966;7.106;2023-02-03T19:28:23;4.60;;;4.10;;
3767;SDS011;1899;49.966;7.106;2023-02-03T19:30:48;4.57;;;4.17;;
3767;SDS011;1899;49.966;7.106;2023-02-03T19:33:13;6.53;;;4.60;;
3767;SDS011;1899;49.966;7.106;2023-02-03T19:35:39;6.50;;;4.60;;
3767;SDS011;1899;49.966;7.106;2023-02-03T19:38:04;4.90;;;4.40;;
3767;SDS011;1899;49.966;7.106;2023-02-03T19:40:30;5.87;;;4.53;;
3767;SDS011;1899;49.966;7.106;2023-02-03T19:42:55;7.60;;;4.80;;
3767;SDS011;1899;49.966;7.106;2023-02-03T19:45:20;4.40;;;4.00;;
3767;SDS011;1899;49.966;7.106;2023-02-03T19:47:46;4.35;;;3.95;;
3767;SDS011;1899;49.966;7.106;2023-02-03T19:50:11;5.40;;;4.50;;
3767;SDS011;1899;49.966;7.106;2023-02-03T19:52:36;7.73;;;4.23;;
3767;SDS011;1899;49.966;7.106;2023-02-03T19:55:02;5.50;;;4.60;;
3767;SDS011;1899;49.966;7.106;2023-02-03T19:57:27;5.03;;;4.53;;
3767;SDS011;1899;49.966;7.106;2023-02-03T19:59:52;5.90;;;4.27;;
3767;SDS011;1899;49.966;7.106;2023-02-03T20:02:18;4.80;;;4.30;;
3767;SDS011;1899;49.966;7.106;2023-02-03T20:04:44;6.80;;;4.40;;
3767;SDS011;1899;49.966;7.106;2023-02-03T20:07:10;7.17;;;5.27;;
3767;SDS011;1899;49.966;7.106;2023-02-03T20:09:35;8.00;;;5.00;;
3767;SDS011;1899;49.966;7.106;2023-02-03T20:12:00;6.60;;;5.07;;
3767;SDS011;1899;49.966;7.106;2023-02-03T20:14:26;6.20;;;4.90;;
3767;SDS011;1899;49.966;7.106;2023-02-03T20:16:51;5.20;;;4.70;;
3767;SDS011;1899;49.966;7.106;2023-02-03T20:19:17;7.60;;;5.20;;
3767;SDS011;1899;49.966;7.106;2023-02-03T20:21:42;7.03;;;5.15;;
3767;SDS011;1899;49.966;7.106;2023-02-03T20:24:08;5.23;;;4.40;;
3767;SDS011;1899;49.966;7.106;2023-02-03T20:26:33;7.00;;;5.00;;
3767;SDS011;1899;49.966;7.106;2023-02-03T20:28:58;6.90;;;4.90;;
3767;SDS011;1899;49.966;7.106;2023-02-03T20:31:24;8.17;;;5.17;;
3767;SDS011;1899;49.966;7.106;2023-02-03T20:33:49;8.25;;;5.72;;
3767;SDS011;1899;49.966;7.106;2023-02-03T20:36:16;8.73;;;5.75;;
3767;SDS011;1899;49.966;7.106;2023-02-03T20:38:41;8.27;;;6.17;;
3767;SDS011;1899;49.966;7.106;2023-02-03T20:41:10;7.03;;;5.90;;
3767;SDS011;1899;49.966;7.106;2023-02-03T20:43:35;9.30;;;5.50;;
3767;SDS011;1899;49.966;7.106;2023-02-03T20:46:02;7.93;;;6.00;;
3767;SDS011;1899;49.966;7.106;2023-02-03T20:48:27;7.82;;;5.60;;
3767;SDS011;1899;49.966;7.106;2023-02-03T20:50:52;8.75;;;6.10;;
3767;SDS011;1899;49.966;7.106;2023-02-03T20:53:19;9.30;;;5.90;;
3767;SDS011;1899;49.966;7.106;2023-02-03T20:55:45;9.00;;;6.03;;
3767;SDS011;1899;49.966;7.106;2023-02-03T20:58:13;7.85;;;6.13;;
